Time;durP1;ratioP1;P1;durP2;ratioP2;P2;SDS_P1;SDS_P2;PMS_P1;PMS_P2;Temp;Humidity;BMP_temperature;BMP_pressure;BME280_temperature;BME280_humidity;BME280_pressure;Samples;Min_cycle;Max_cycle;Signal;HPM_P1;HPM_P2
2022/01/02 00:00:07;;;;;;;11.32;7.18;;;;;;;8.53;88.54;101549.47;7394311;19;20014;-64
2022/01/02 00:02:37;;;;;;;12.00;6.60;;;;;;;8.48;88.65;101540.78;7394099;19;20375;-65
2022/01/02 00:05:07;;;;;;;11.60;7.75;;;;;;;8.43;88.64;101535.50;7393391;19;20018;-65
2022/01/02 00:07:42;;;;;;;13.98;7.75;;;;;;;8.39;88.75;101527.63;7394311;19;20022;-65
2022/01/02 00:10:15;;;;;;;12.18;7.47;;;;;;;8.36;88.71;101522.44;7392093;19;20513;-64
2022/01/02 00:12:52;;;;;;;15.45;8.70;;;;;;;8.31;88.84;101520.69;7393456;19;20387;-65
2022/01/02 00:15:22;;;;;;;13.95;7.43;;;;;;;8.28;89.15;101519.81;7393286;19;20089;-65
2022/01/02 00:17:53;;;;;;;12.98;8.27;;;;;;;8.25;89.09;101515.47;7394338;19;20019;-65
2022/01/02 00:20:31;;;;;;;11.80;8.07;;;;;;;8.20;89.08;101508.47;7400722;19;20531;-65
2022/01/02 00:23:04;;;;;;;13.13;7.43;;;;;;;8.17;89.14;101500.63;7401335;19;20378;-64
2022/01/02 00:25:39;;;;;;;12.48;7.40;;;;;;;8.13;89.41;101505.84;7401379;19;20014;-65
2022/01/02 00:28:08;;;;;;;12.35;7.05;;;;;;;8.10;89.34;101510.19;7404639;19;20014;-68
2022/01/02 00:30:37;;;;;;;12.10;7.90;;;;;;;8.04;89.36;101505.84;7399890;19;20390;-65
2022/01/02 00:33:06;;;;;;;11.25;7.57;;;;;;;8.04;89.27;101504.97;7401276;19;20510;-65
2022/01/02 00:35:34;;;;;;;13.25;7.55;;;;;;;8.00;89.51;101496.28;7399581;19;20040;-65
2022/01/02 00:38:02;;;;;;;12.73;8.00;;;;;;;7.95;89.33;101484.94;7397615;19;20015;-64
2022/01/02 00:40:37;;;;;;;14.85;7.75;;;;;;;7.89;89.62;101485.78;7400115;19;20019;-65
2022/01/02 00:43:07;;;;;;;12.15;7.78;;;;;;;7.84;89.43;101471.84;7399841;19;20517;-64
2022/01/02 00:45:39;;;;;;;15.70;8.30;;;;;;;7.81;89.56;101477.09;7399010;19;20015;-65
2022/01/02 00:48:15;;;;;;;11.48;7.43;;;;;;;7.76;89.68;101484.91;7400457;19;20032;-64
2022/01/02 00:50:49;;;;;;;9.32;7.40;;;;;;;7.73;89.66;101468.34;7398590;19;20014;-64
2022/01/02 00:53:20;;;;;;;13.50;7.50;;;;;;;7.71;89.84;101462.25;7400284;19;20015;-64
2022/01/02 00:55:59;;;;;;;13.82;8.07;;;;;;;7.69;90.05;101451.81;7398803;19;20030;-65
2022/01/02 00:58:36;;;;;;;10.65;7.43;;;;;;;7.66;90.03;101434.38;7399585;19;20459;-65
2022/01/02 01:01:09;;;;;;;13.95;7.90;;;;;;;7.64;90.21;101430.91;7400030;19;20015;-65
2022/01/02 01:03:38;;;;;;;12.93;7.82;;;;;;;7.61;90.25;101420.47;7399955;19;20026;-65
2022/01/02 01:06:07;;;;;;;11.40;7.13;;;;;;;7.62;90.32;101414.38;7398111;19;20018;-65
2022/01/02 01:08:35;;;;;;;10.90;7.00;;;;;;;7.61;90.29;101399.56;7399604;19;20022;-65
2022/01/02 01:11:11;;;;;;;11.65;6.53;;;;;;;7.60;90.32;101392.59;7397311;19;20033;-64
2022/01/02 01:13:39;;;;;;;9.98;7.05;;;;;;;7.62;90.24;101395.19;7399684;19;20021;-64
2022/01/02 01:16:08;;;;;;;19.15;6.85;;;;;;;7.62;90.16;101403.03;7397701;19;20019;-64
2022/01/02 01:18:36;;;;;;;10.93;6.18;;;;;;;7.62;90.43;101387.38;7399165;19;20018;-64
2022/01/02 01:21:05;;;;;;;11.55;6.50;;;;;;;7.63;90.65;101390.00;7398994;19;20014;-63
2022/01/02 01:23:33;;;;;;;10.35;6.47;;;;;;;7.65;90.33;101398.69;7398963;19;20019;-64
2022/01/02 01:26:06;;;;;;;11.18;5.90;;;;;;;7.66;90.26;101390.00;7397445;19;20040;-63
2022/01/02 01:28:37;;;;;;;8.63;5.80;;;;;;;7.68;90.21;101370.84;7399166;19;20094;-63
2022/01/02 01:31:05;;;;;;;8.73;5.63;;;;;;;7.70;90.16;101366.50;7394441;19;20011;-64
2022/01/02 01:33:35;;;;;;;11.45;5.68;;;;;;;7.71;90.25;101366.50;7398564;19;20010;-64
2022/01/02 01:36:03;;;;;;;10.45;5.68;;;;;;;7.72;89.71;101365.63;7396685;19;20015;-64
2022/01/02 01:38:31;;;;;;;8.63;6.07;;;;;;;7.74;90.06;101370.84;7398702;19;20019;-64
2022/01/02 01:41:06;;;;;;;8.07;5.90;;;;;;;7.76;89.99;101376.94;7398316;19;20019;-64
2022/01/02 01:43:52;;;;;;;11.80;5.75;;;;;;;7.76;90.02;101369.09;7398730;19;20015;-64
2022/01/02 01:46:20;;;;;;;7.82;5.80;;;;;;;7.79;90.06;101369.09;7396788;19;20010;-64
2022/01/02 01:48:55;;;;;;;9.98;6.45;;;;;;;7.79;89.69;101356.91;7398051;19;20018;-64
2022/01/02 01:51:23;;;;;;;10.85;5.40;;;;;;;7.80;89.51;101355.19;7396562;19;20019;-64
2022/01/02 01:53:51;;;;;;;10.23;6.28;;;;;;;7.81;89.65;101339.50;7397815;19;20007;-64
2022/01/02 01:56:19;;;;;;;9.45;5.85;;;;;;;7.81;89.46;101339.50;7396243;19;20026;-64
2022/01/02 01:58:50;;;;;;;6.72;5.05;;;;;;;7.81;89.23;101320.34;7397722;19;20014;-64
2022/01/02 02:01:18;;;;;;;8.95;5.45;;;;;;;7.81;89.16;101309.91;7398028;19;20014;-64
2022/01/02 02:03:47;;;;;;;11.07;5.97;;;;;;;7.81;89.22;101299.44;7397553;19;20007;-64
2022/01/02 02:06:15;;;;;;;9.85;5.03;;;;;;;7.81;89.27;101294.22;7395740;19;20484;-64
2022/01/02 02:08:43;;;;;;;8.68;5.03;;;;;;;7.82;89.14;101283.78;7397378;19;20366;-64
2022/01/02 02:11:12;;;;;;;9.40;5.35;;;;;;;7.83;89.13;101268.94;7395853;19;20015;-64
2022/01/02 02:13:41;;;;;;;8.23;5.60;;;;;;;7.83;88.99;101259.41;7398531;19;20485;-63
2022/01/02 02:16:12;;;;;;;7.93;5.65;;;;;;;7.85;89.14;101263.72;7395506;19;20015;-64
2022/01/02 02:18:40;;;;;;;8.35;5.53;;;;;;;7.86;89.15;101262.84;7397510;19;20030;-64
2022/01/02 02:21:11;;;;;;;7.97;4.97;;;;;;;7.85;88.94;101271.56;7396931;19;20022;-64
2022/01/02 02:23:39;;;;;;;12.02;5.22;;;;;;;7.85;89.08;101275.06;7397361;19;20015;-64
2022/01/02 02:26:07;;;;;;;9.85;5.45;;;;;;;7.88;89.05;101302.91;7395649;19;20037;-64
2022/01/02 02:28:36;;;;;;;8.25;5.45;;;;;;;7.88;89.00;101302.91;7396777;19;20041;-64
2022/01/02 02:31:04;;;;;;;7.10;4.88;;;;;;;7.88;88.84;101288.09;7395480;19;20032;-64
2022/01/02 02:33:32;;;;;;;9.48;5.13;;;;;;;7.88;88.84;101263.72;7396244;19;20483;-64
2022/01/02 02:36:01;;;;;;;8.88;5.25;;;;;;;7.88;88.69;101264.59;7394483;19;20018;-64
2022/01/02 02:38:32;;;;;;;10.60;5.03;;;;;;;7.87;88.78;101255.00;7396819;19;20014;-64
2022/01/02 02:41:01;;;;;;;8.23;4.95;;;;;;;7.88;88.57;101235.84;7395589;19;20025;-64
2022/01/02 02:43:33;;;;;;;9.38;5.05;;;;;;;7.88;88.91;101217.56;7396315;19;20022;-64
2022/01/02 02:51:29;;;;;;;7.97;5.00;;;;;;;7.89;89.02;101232.38;7394955;19;20013;-64
2022/01/02 02:54:00;;;;;;;5.80;4.10;;;;;;;7.89;88.76;101232.38;7395598;19;20483;-63
2022/01/02 02:56:40;;;;;;;12.27;5.07;;;;;;;7.90;88.92;101214.94;7394649;19;20029;-64
2022/01/02 02:59:09;;;;;;;9.77;4.63;;;;;;;7.90;88.97;101215.81;7395510;19;20513;-64
2022/01/02 03:01:37;;;;;;;7.13;5.15;;;;;;;7.92;88.88;101223.66;7395728;19;20010;-64
2022/01/02 03:04:06;;;;;;;8.50;5.30;;;;;;;7.92;88.48;101205.34;7396345;19;20018;-64
2022/01/02 03:06:34;;;;;;;8.32;4.90;;;;;;;7.93;88.85;101207.09;7394108;19;20024;-64
2022/01/02 03:09:08;;;;;;;6.57;4.40;;;;;;;7.92;88.58;101206.25;7395500;19;20015;-64
2022/01/02 03:11:37;;;;;;;7.45;5.00;;;;;;;7.93;88.54;101196.66;7394552;19;20011;-64
2022/01/02 03:14:06;;;;;;;8.88;5.47;;;;;;;7.92;88.55;101189.69;7395478;19;20010;-64
2022/01/02 03:16:35;;;;;;;12.52;5.68;;;;;;;7.91;88.64;101181.00;7394137;19;20015;-64
2022/01/02 03:19:03;;;;;;;8.80;5.30;;;;;;;7.88;88.23;101173.16;7395356;19;20015;-63
2022/01/02 03:21:31;;;;;;;6.28;4.53;;;;;;;7.88;88.67;101180.13;7395244;19;20014;-64
2022/01/02 03:24:00;;;;;;;8.25;4.85;;;;;;;7.85;88.83;101164.44;7395074;19;20018;-64
2022/01/02 03:26:31;;;;;;;8.30;4.78;;;;;;;7.82;88.42;101154.88;7393651;19;20032;-64
2022/01/02 03:28:59;;;;;;;8.07;5.93;;;;;;;7.81;88.25;101155.78;7395441;19;20138;-64
2022/01/02 03:31:27;;;;;;;8.93;4.95;;;;;;;7.78;88.46;101159.25;7393485;19;20018;-64
2022/01/02 03:33:55;;;;;;;9.68;5.32;;;;;;;7.78;88.75;101155.78;7394432;19;20476;-64
2022/01/02 03:36:24;;;;;;;8.52;5.43;;;;;;;7.76;88.84;101154.91;7392889;19;20048;-64
2022/01/02 03:38:52;;;;;;;9.80;4.80;;;;;;;7.75;88.75;101142.75;7395128;19;20011;-64
2022/01/02 03:41:20;;;;;;;6.50;4.90;;;;;;;7.76;89.16;101144.44;7394630;19;20042;-64
2022/01/02 03:43:51;;;;;;;9.75;5.32;;;;;;;7.75;89.07;101150.56;7394695;19;20015;-63
2022/01/02 03:46:19;;;;;;;5.82;4.18;;;;;;;7.74;89.10;101151.44;7392861;19;20642;-64
2022/01/02 03:48:47;;;;;;;10.27;4.97;;;;;;;7.74;89.30;101146.22;7394568;19;20015;-64
2022/01/02 03:51:15;;;;;;;9.57;5.38;;;;;;;7.75;89.10;101133.16;7393246;19;20015;-64
2022/01/02 03:53:44;;;;;;;6.90;4.35;;;;;;;7.75;89.30;101133.16;7397642;19;20033;-64
2022/01/02 03:56:12;;;;;;;9.68;4.38;;;;;;;7.74;89.24;101141.84;7399867;19;20018;-64
2022/01/02 03:58:40;;;;;;;7.90;4.60;;;;;;;7.74;89.35;101141.00;7401663;19;20018;-64
2022/01/02 04:01:11;;;;;;;7.68;4.70;;;;;;;7.72;89.38;101135.78;7401650;19;20010;-64
2022/01/02 04:03:39;;;;;;;8.15;4.85;;;;;;;7.73;89.51;101121.81;7401980;19;20018;-64
2022/01/02 04:06:07;;;;;;;9.82;4.72;;;;;;;7.72;89.54;101107.06;7399766;19;20044;-64
2022/01/02 04:08:35;;;;;;;6.80;4.63;;;;;;;7.72;89.47;101098.34;7401040;19;20386;-64
2022/01/02 04:11:03;;;;;;;6.97;4.85;;;;;;;7.73;89.73;101094.84;7399739;19;20365;-64
2022/01/02 04:13:32;;;;;;;7.35;4.72;;;;;;;7.71;89.41;101089.63;7400869;19;20479;-64
2022/01/02 04:16:00;;;;;;;7.65;5.15;;;;;;;7.72;89.62;101090.50;7399577;19;20023;-64
2022/01/02 04:18:31;;;;;;;9.40;4.50;;;;;;;7.71;89.64;101088.75;7401096;19;20021;-64
2022/01/02 04:20:59;;;;;;;10.98;5.13;;;;;;;7.72;89.59;101091.38;7401484;19;20025;-64
2022/01/02 04:23:27;;;;;;;8.02;4.57;;;;;;;7.73;89.71;101097.47;7400888;19;20018;-64
2022/01/02 04:25:55;;;;;;;10.57;4.57;;;;;;;7.73;89.67;101093.09;7399352;19;20018;-64
2022/01/02 04:28:30;;;;;;;7.93;4.38;;;;;;;7.71;89.67;101087.03;7400872;19;20022;-64
2022/01/02 04:30:58;;;;;;;7.75;5.05;;;;;;;7.73;90.11;101098.31;7399706;19;20019;-64
2022/01/02 04:33:26;;;;;;;6.07;4.75;;;;;;;7.72;89.94;101095.72;7400621;19;20031;-64
2022/01/02 04:35:57;;;;;;;7.25;4.72;;;;;;;7.73;90.17;101097.47;7399088;19;20018;-64
2022/01/02 04:38:25;;;;;;;9.45;4.80;;;;;;;7.72;90.15;101096.59;7397621;19;20011;-64
2022/01/02 04:40:53;;;;;;;8.15;4.28;;;;;;;7.73;90.40;101084.41;7400247;19;20041;-64
2022/01/02 04:43:21;;;;;;;8.40;4.63;;;;;;;7.73;90.17;101090.47;7400056;19;20019;-64
2022/01/02 04:45:50;;;;;;;8.48;4.55;;;;;;;7.75;90.40;101100.94;7398859;19;20015;-64
2022/01/02 04:48:18;;;;;;;7.13;4.72;;;;;;;7.76;90.39;101092.22;7400148;19;20010;-64
2022/01/02 04:50:46;;;;;;;6.90;4.32;;;;;;;7.76;90.42;101086.97;7399482;19;20014;-64
2022/01/02 04:53:19;;;;;;;8.27;4.43;;;;;;;7.77;90.42;101092.22;7403059;19;20031;-63
2022/01/02 04:55:47;;;;;;;6.72;4.32;;;;;;;7.78;90.52;101083.50;7402468;19;20490;-65
2022/01/02 04:58:15;;;;;;;5.35;3.90;;;;;;;7.80;90.75;101117.47;7401933;19;20014;-65
2022/01/02 05:00:44;;;;;;;6.88;4.45;;;;;;;7.81;90.44;101124.44;7400517;19;20015;-64
2022/01/02 05:03:12;;;;;;;8.25;5.03;;;;;;;7.82;90.54;101127.03;7400033;19;20024;-64
2022/01/02 05:05:47;;;;;;;7.90;4.88;;;;;;;7.82;90.49;101136.59;7397995;19;20031;-64
2022/01/02 05:08:18;;;;;;;11.40;4.97;;;;;;;7.83;90.62;101120.94;7399146;19;20480;-65
2022/01/02 05:10:47;;;;;;;8.02;4.38;;;;;;;7.85;90.48;101144.44;7399336;19;20015;-64
2022/01/02 05:13:15;;;;;;;4.90;3.78;;;;;;;7.86;90.53;101150.50;7398923;19;20479;-64
2022/01/02 05:15:44;;;;;;;5.57;3.85;;;;;;;7.86;90.52;101140.94;7398142;19;20022;-64
2022/01/02 05:18:13;;;;;;;6.18;3.90;;;;;;;7.86;90.91;101120.06;7399180;19;20021;-64
2022/01/02 05:20:44;;;;;;;7.63;4.13;;;;;;;7.84;90.50;101108.72;7399003;19;20010;-64
2022/01/02 05:23:12;;;;;;;9.02;4.13;;;;;;;7.83;90.78;101093.94;7399080;19;20090;-64
2022/01/02 05:25:43;;;;;;;7.53;3.92;;;;;;;7.83;90.71;101093.94;7397735;19;20027;-64
2022/01/02 05:28:12;;;;;;;6.03;4.65;;;;;;;7.81;90.78;101093.09;7399146;19;20010;-64
2022/01/02 05:30:41;;;;;;;5.65;3.65;;;;;;;7.80;90.83;101088.72;7398407;19;20010;-64
2022/01/02 05:33:10;;;;;;;7.93;4.70;;;;;;;7.80;90.91;101092.19;7398594;19;20015;-64
2022/01/02 05:35:39;;;;;;;7.07;4.40;;;;;;;7.79;90.97;101093.06;7397382;19;20018;-64
2022/01/02 05:38:07;;;;;;;7.30;4.47;;;;;;;7.78;91.12;101080.03;7396057;19;20010;-64
2022/01/02 05:40:35;;;;;;;6.32;3.90;;;;;;;7.78;90.86;101085.25;7397998;19;20383;-64
2022/01/02 05:43:08;;;;;;;6.28;4.72;;;;;;;7.71;91.04;101062.63;7398268;19;20018;-63
2022/01/02 05:45:36;;;;;;;7.18;4.40;;;;;;;7.74;91.11;101054.81;7397522;19;20044;-64
2022/01/02 05:48:05;;;;;;;6.60;3.72;;;;;;;7.74;91.46;101060.03;7398056;19;20361;-64
2022/01/02 05:50:34;;;;;;;6.43;4.53;;;;;;;7.73;91.29;101053.91;7397589;19;20511;-64
2022/01/02 05:53:02;;;;;;;6.43;3.95;;;;;;;7.73;91.27;101045.22;7395829;19;20027;-63
2022/01/02 05:55:30;;;;;;;9.18;4.18;;;;;;;7.73;91.42;101042.63;7397412;19;20018;-65
2022/01/02 05:57:59;;;;;;;7.15;4.30;;;;;;;7.72;91.48;101043.47;7397901;19;20023;-64
2022/01/02 06:00:29;;;;;;;5.68;3.78;;;;;;;7.71;91.48;101045.25;7397715;19;20027;-64
2022/01/02 06:02:57;;;;;;;6.45;4.03;;;;;;;7.70;91.40;101047.88;7398035;19;20036;-64
2022/01/02 06:05:26;;;;;;;10.15;4.70;;;;;;;7.70;92.17;101046.09;7396535;19;20479;-61
2022/01/02 06:07:54;;;;;;;6.85;3.80;;;;;;;7.73;92.30;101042.63;7397512;19;20020;-60
2022/01/02 06:10:23;;;;;;;7.65;4.43;;;;;;;7.74;92.05;101042.59;7397469;19;20007;-63
2022/01/02 06:12:51;;;;;;;9.18;4.47;;;;;;;7.76;91.93;101037.34;7395621;19;20007;-64
2022/01/02 06:15:19;;;;;;;7.38;4.28;;;;;;;7.75;91.90;101010.38;7395912;19;20027;-66
2022/01/02 06:17:50;;;;;;;7.07;4.32;;;;;;;7.75;91.96;101007.78;7396334;19;20015;-64
2022/01/02 06:20:18;;;;;;;7.72;4.40;;;;;;;7.74;91.54;101032.16;7397525;19;20015;-64
2022/01/02 06:22:46;;;;;;;8.05;4.35;;;;;;;7.72;91.57;101043.47;7397025;19;20014;-64
2022/01/02 06:25:14;;;;;;;7.63;4.43;;;;;;;7.70;91.60;101040.88;7396514;19;20035;-63
2022/01/02 06:27:43;;;;;;;6.38;3.85;;;;;;;7.66;91.76;101034.81;7396824;19;20032;-63
2022/01/02 06:30:12;;;;;;;12.55;4.43;;;;;;;7.63;91.84;101029.63;7396762;19;20014;-64
2022/01/02 06:32:41;;;;;;;5.55;3.90;;;;;;;7.61;91.89;101010.47;7395405;19;20014;-64
2022/01/02 06:35:12;;;;;;;7.38;4.20;;;;;;;7.60;91.90;100998.28;7396210;19;20030;-64
2022/01/02 06:37:40;;;;;;;6.57;4.63;;;;;;;7.59;92.23;100996.53;7395241;19;20010;-64
2022/01/02 06:40:09;;;;;;;5.47;4.50;;;;;;;7.58;92.19;101009.59;7396403;19;20015;-64
2022/01/02 06:42:37;;;;;;;8.00;4.18;;;;;;;7.56;92.19;101016.59;7396336;19;20031;-64
2022/01/02 06:45:06;;;;;;;6.80;3.88;;;;;;;7.53;92.19;101022.66;7395809;19;20035;-64
2022/01/02 06:47:35;;;;;;;4.65;3.83;;;;;;;7.52;92.33;101036.63;7396197;19;20018;-64
2022/01/02 06:50:03;;;;;;;6.97;4.25;;;;;;;7.52;92.33;101044.47;7396192;19;20007;-64
2022/01/02 06:52:33;;;;;;;7.50;4.57;;;;;;;7.53;92.37;101046.16;7394731;19;20014;-64
2022/01/02 06:55:02;;;;;;;11.77;5.47;;;;;;;7.53;92.43;101027.91;7395761;19;20031;-64
2022/01/02 06:57:30;;;;;;;7.13;4.22;;;;;;;7.56;92.56;101017.44;7395883;19;20036;-64
2022/01/02 06:59:58;;;;;;;7.63;4.45;;;;;;;7.58;92.71;101010.50;7395846;19;20023;-63
2022/01/02 07:02:26;;;;;;;7.60;4.72;;;;;;;7.62;92.56;101011.31;7395846;19;20023;-64
2022/01/02 07:04:54;;;;;;;6.88;4.35;;;;;;;7.64;92.50;101004.34;7395349;19;20027;-64
2022/01/02 07:07:22;;;;;;;7.00;4.68;;;;;;;7.68;92.48;100999.97;7395699;19;20011;-64
2022/01/02 07:09:53;;;;;;;10.10;4.75;;;;;;;7.71;92.44;100998.22;7395594;19;20027;-64
2022/01/02 07:12:23;;;;;;;8.05;4.78;;;;;;;7.76;92.41;100995.56;7394247;19;20487;-66
2022/01/02 07:14:51;;;;;;;7.60;4.65;;;;;;;7.81;93.63;100991.22;7395212;19;20372;-70
2022/01/02 07:17:20;;;;;;;8.20;4.82;;;;;;;7.89;92.62;100988.53;7395406;19;20032;-65
2022/01/02 07:19:48;;;;;;;8.70;4.40;;;;;;;7.92;92.39;100986.78;7395242;19;20032;-65
2022/01/02 07:22:16;;;;;;;6.35;3.70;;;;;;;7.98;92.00;100991.09;7396046;19;20015;-64
2022/01/02 07:24:50;;;;;;;9.52;4.78;;;;;;;8.01;91.96;100975.38;7394786;19;20015;-65
2022/01/02 07:27:21;;;;;;;7.90;4.22;;;;;;;8.04;91.89;100970.13;7396066;19;20052;-65
2022/01/02 07:29:51;;;;;;;6.93;4.03;;;;;;;8.09;91.66;100968.34;7402471;19;20018;-65
2022/01/02 07:32:20;;;;;;;7.25;3.97;;;;;;;8.13;91.73;100972.66;7401151;19;20354;-65
2022/01/02 07:34:48;;;;;;;9.15;4.38;;;;;;;8.18;91.42;100990.09;7402327;19;20021;-65
2022/01/02 07:37:16;;;;;;;7.05;3.65;;;;;;;8.23;91.32;100999.59;7401317;19;20010;-66
2022/01/02 07:39:45;;;;;;;5.10;3.75;;;;;;;8.26;91.56;100990.88;7402565;19;20015;-66
2022/01/02 07:42:13;;;;;;;4.57;3.30;;;;;;;8.30;91.04;100989.97;7402954;19;20010;-65
2022/01/02 07:44:44;;;;;;;6.70;3.55;;;;;;;8.34;91.13;100982.97;7402467;19;20028;-65
2022/01/02 07:47:12;;;;;;;7.20;3.80;;;;;;;8.38;90.92;100972.47;7402720;19;20011;-65
2022/01/02 07:49:40;;;;;;;7.38;3.33;;;;;;;8.42;90.78;100976.78;7402313;19;20014;-65
2022/01/02 07:52:08;;;;;;;6.30;3.72;;;;;;;8.46;90.33;100986.38;7400664;19;20352;-66
2022/01/02 07:54:37;;;;;;;6.65;3.50;;;;;;;8.50;90.32;100971.50;7402166;19;20019;-65
2022/01/02 07:57:06;;;;;;;8.32;3.67;;;;;;;8.53;89.95;100981.06;7402146;19;20015;-65
2022/01/02 07:59:34;;;;;;;6.88;3.50;;;;;;;8.49;90.34;100964.53;7401914;19;20019;-65
2022/01/02 08:02:06;;;;;;;4.25;3.33;;;;;;;8.51;90.06;100965.41;7401895;19;20022;-65
2022/01/02 08:04:34;;;;;;;5.65;3.03;;;;;;;8.57;89.99;100988.88;7401970;19;20015;-65
2022/01/02 08:07:02;;;;;;;5.38;3.40;;;;;;;8.56;89.50;100981.06;7398129;19;20378;-65
2022/01/02 08:09:30;;;;;;;6.93;3.40;;;;;;;8.56;89.81;100975.84;7401395;19;20023;-65
2022/01/02 08:11:58;;;;;;;6.20;3.22;;;;;;;8.57;89.75;100981.03;7400716;19;20022;-63
2022/01/02 08:14:26;;;;;;;4.93;3.33;;;;;;;8.57;89.90;100982.81;7401566;19;20027;-64
2022/01/02 08:16:55;;;;;;;5.70;3.40;;;;;;;8.57;89.46;100978.44;7398497;19;20018;-65
2022/01/02 08:19:26;;;;;;;5.57;3.58;;;;;;;8.59;89.97;100971.44;7401129;19;20010;-65
2022/01/02 08:21:54;;;;;;;7.45;3.50;;;;;;;8.62;89.65;100967.94;7401354;19;20011;-65
2022/01/02 08:24:22;;;;;;;6.15;3.90;;;;;;;8.63;89.57;100964.41;7400768;19;20010;-65
2022/01/02 08:26:51;;;;;;;5.53;3.40;;;;;;;8.67;89.83;100970.47;7397848;19;20349;-65
2022/01/02 08:29:20;;;;;;;7.75;3.60;;;;;;;8.69;89.57;100976.56;7400731;19;20367;-65
2022/01/02 08:31:48;;;;;;;5.05;2.97;;;;;;;8.71;89.42;100961.75;7400294;19;20028;-65
2022/01/02 08:34:16;;;;;;;4.25;2.80;;;;;;;8.72;89.71;100964.34;7400156;19;20483;-65
2022/01/02 08:36:47;;;;;;;6.78;3.13;;;;;;;8.72;89.45;100968.69;7397571;19;20018;-65
2022/01/02 08:39:15;;;;;;;5.95;4.30;;;;;;;8.72;89.67;100966.94;7399641;19;20020;-65
2022/01/02 08:41:43;;;;;;;6.13;3.63;;;;;;;8.72;89.16;100972.19;7400242;19;20014;-66
2022/01/02 08:44:11;;;;;;;5.57;3.20;;;;;;;8.73;89.45;100965.19;7400191;19;20015;-65
2022/01/02 08:46:40;;;;;;;3.33;2.67;;;;;;;8.74;89.63;100957.31;7397867;19;20023;-65
2022/01/02 08:49:08;;;;;;;5.55;3.10;;;;;;;8.75;89.65;100955.59;7400118;19;20027;-66
2022/01/02 08:51:36;;;;;;;5.50;3.17;;;;;;;8.76;89.81;100944.25;7400290;19;20010;-65
2022/01/02 08:54:13;;;;;;;8.10;3.22;;;;;;;8.78;89.57;100940.72;7399904;19;20018;-65
2022/01/02 08:56:42;;;;;;;5.93;3.50;;;;;;;8.80;89.87;100938.94;7397510;19;20040;-65
2022/01/02 08:59:10;;;;;;;5.68;3.05;;;;;;;8.84;89.80;100934.53;7399636;19;20015;-65
2022/01/02 09:01:38;;;;;;;9.27;3.70;;;;;;;8.85;89.89;100936.28;7399781;19;20014;-66
2022/01/02 09:04:06;;;;;;;6.25;3.45;;;;;;;8.88;89.83;100938.00;7399539;19;20018;-65
2022/01/02 09:06:34;;;;;;;8.88;4.63;;;;;;;8.89;89.61;100945.81;7397436;19;20022;-66
2022/01/02 09:09:03;;;;;;;9.52;5.40;;;;;;;8.87;89.51;100934.53;7400232;19;20098;-65
2022/01/02 09:11:34;;;;;;;23.35;12.02;;;;;;;8.91;89.57;100944.06;7399539;19;20022;-66
2022/01/02 09:14:03;;;;;;;8.85;3.72;;;;;;;8.92;89.90;100944.91;7397802;19;20373;-67
2022/01/02 09:16:33;;;;;;;7.22;3.42;;;;;;;8.92;90.11;100939.69;7398872;19;20025;-66
2022/01/02 09:19:01;;;;;;;4.95;3.55;;;;;;;8.92;90.23;100940.56;7401879;19;20015;-65
2022/01/02 09:21:30;;;;;;;5.20;3.75;;;;;;;8.93;90.32;100944.03;7400704;19;20472;-66
2022/01/02 09:23:58;;;;;;;6.90;3.40;;;;;;;8.92;90.36;100932.72;7398579;19;20007;-66
2022/01/02 09:26:26;;;;;;;4.60;3.15;;;;;;;8.92;90.58;100924.88;7396716;19;20028;-66
2022/01/02 09:28:57;;;;;;;6.15;4.13;;;;;;;8.92;90.57;100932.72;7398178;19;20022;-66
2022/01/02 09:31:26;;;;;;;12.65;6.50;;;;;;;8.93;90.73;100942.31;7398918;19;20019;-66
2022/01/02 09:33:54;;;;;;;7.18;4.18;;;;;;;8.93;90.99;100931.84;7396692;19;20011;-66
2022/01/02 09:36:22;;;;;;;6.35;3.70;;;;;;;8.93;91.15;100931.84;7397187;19;20014;-65
2022/01/02 09:38:50;;;;;;;5.68;3.45;;;;;;;8.92;91.24;100924.88;7395687;19;20484;-66
2022/01/02 09:41:20;;;;;;;8.75;4.15;;;;;;;8.93;91.39;100921.38;7397770;19;20486;-65
2022/01/02 09:43:50;;;;;;;7.05;4.60;;;;;;;8.96;91.52;100917.84;7398162;19;20382;-66
2022/01/02 09:46:23;;;;;;;10.05;5.63;;;;;;;8.98;91.59;100921.28;7396310;19;20471;-65
2022/01/02 09:48:53;;;;;;;6.40;3.60;;;;;;;8.99;91.74;100907.34;7398753;19;20026;-65
2022/01/02 09:51:24;;;;;;;7.72;3.90;;;;;;;9.02;91.80;100902.03;7395369;19;20015;-64
2022/01/02 09:53:54;;;;;;;6.70;3.47;;;;;;;9.04;91.99;100905.53;7396029;19;20010;-66
2022/01/02 09:56:22;;;;;;;5.00;3.72;;;;;;;9.07;91.89;100892.41;7396133;19;20015;-64
2022/01/02 09:58:50;;;;;;;6.65;3.70;;;;;;;9.08;92.04;100885.41;7397588;19;20019;-64
2022/01/02 10:01:23;;;;;;;6.03;3.47;;;;;;;9.12;92.22;100884.47;7397595;19;20027;-65
2022/01/02 10:03:53;;;;;;;6.22;4.47;;;;;;;9.15;92.12;100876.59;7397792;19;20036;-64
2022/01/02 10:06:22;;;;;;;7.28;3.50;;;;;;;9.18;92.31;100880.94;7396286;19;20022;-65
2022/01/02 10:08:50;;;;;;;5.03;3.42;;;;;;;9.19;92.38;100887.91;7397143;19;20007;-63
2022/01/02 10:11:22;;;;;;;8.20;3.92;;;;;;;9.21;92.37;100871.28;7397116;19;20014;-65
2022/01/02 10:13:52;;;;;;;6.95;3.88;;;;;;;9.21;92.46;100858.19;7395307;19;20482;-64
2022/01/02 10:16:33;;;;;;;5.97;3.55;;;;;;;9.24;92.13;100857.28;7394957;19;20469;-64
2022/01/02 10:19:03;;;;;;;7.93;3.65;;;;;;;9.27;92.36;100850.22;7396942;19;20074;-64
2022/01/02 10:21:36;;;;;;;5.50;3.30;;;;;;;9.31;92.37;100839.72;7396850;19;20014;-65
2022/01/02 10:24:16;;;;;;;5.78;3.63;;;;;;;9.32;91.91;100837.06;7397295;19;20014;-65
2022/01/02 10:27:05;;;;;;;5.70;3.33;;;;;;;9.35;92.37;100841.41;7395347;19;20018;-65
2022/01/02 10:29:45;;;;;;;7.93;3.45;;;;;;;9.38;91.91;100841.38;7397193;19;20018;-65
2022/01/02 10:32:37;;;;;;;8.38;4.10;;;;;;;9.36;92.09;100812.56;7396797;19;20023;-65
2022/01/02 10:35:17;;;;;;;9.35;4.60;;;;;;;9.41;92.11;100808.13;7396250;19;20026;-65
2022/01/02 10:37:50;;;;;;;8.15;3.70;;;;;;;9.42;92.33;100799.38;7394888;19;20475;-65
2022/01/02 10:40:30;;;;;;;7.32;3.33;;;;;;;9.43;92.22;100802.88;7396771;19;20014;-65
2022/01/02 10:43:00;;;;;;;7.20;3.35;;;;;;;9.44;92.46;100788.91;7396484;19;20015;-65
2022/01/02 10:45:33;;;;;;;6.57;3.60;;;;;;;9.44;92.32;100776.66;7395429;19;20014;-65
2022/01/02 10:48:06;;;;;;;4.25;3.38;;;;;;;9.44;92.43;100763.56;7396211;19;20021;-65
2022/01/02 10:50:34;;;;;;;7.18;4.15;;;;;;;9.45;92.47;100767.03;7396428;19;20022;-65
2022/01/02 10:53:14;;;;;;;8.75;4.00;;;;;;;9.45;92.24;100772.28;7395023;19;20349;-65
2022/01/02 10:55:44;;;;;;;6.20;3.95;;;;;;;9.44;92.40;100758.31;7395282;19;20044;-66
2022/01/02 10:58:13;;;;;;;8.10;3.97;;;;;;;9.43;92.71;100755.75;7396158;19;20011;-64
2022/01/02 11:00:42;;;;;;;7.60;4.32;;;;;;;9.41;92.90;100723.47;7395494;19;20025;-65
2022/01/02 11:03:16;;;;;;;9.57;4.47;;;;;;;9.38;93.18;100707.81;7394846;19;20010;-65
2022/01/02 11:05:49;;;;;;;10.88;5.00;;;;;;;9.35;93.30;100694.78;7394955;19;20019;-65
2022/01/02 11:08:18;;;;;;;8.07;4.67;;;;;;;9.33;93.53;100692.19;7395850;19;20011;-65
2022/01/02 11:10:48;;;;;;;11.45;6.45;;;;;;;9.32;93.75;100692.22;7394977;19;20475;-65
2022/01/02 11:13:17;;;;;;;8.75;3.88;;;;;;;9.29;93.95;100699.22;7395625;19;20027;-65
2022/01/02 11:15:45;;;;;;;20.33;11.60;;;;;;;9.29;94.05;100706.22;7394577;19;20025;-66
2022/01/02 11:18:17;;;;;;;8.15;4.65;;;;;;;9.29;94.54;100693.13;7395154;19;20014;-66
2022/01/02 11:20:46;;;;;;;6.55;4.30;;;;;;;9.29;94.63;100669.56;7395191;19;20019;-66
2022/01/02 11:23:20;;;;;;;7.13;3.80;;;;;;;9.30;94.93;100666.03;7394419;19;20483;-65
2022/01/02 11:25:54;;;;;;;9.00;4.68;;;;;;;9.31;95.19;100677.41;7394152;19;20418;-66
2022/01/02 11:28:34;;;;;;;9.63;4.20;;;;;;;9.31;95.41;100686.09;7394922;19;20011;-65
2022/01/02 11:31:03;;;;;;;9.38;4.10;;;;;;;9.32;95.62;100673.88;7394699;19;20517;-65
2022/01/02 11:33:36;;;;;;;8.23;3.72;;;;;;;9.31;95.71;100667.78;7393603;19;20514;-65
2022/01/02 11:36:23;;;;;;;11.30;4.82;;;;;;;9.32;95.56;100690.44;7393738;19;20039;-65
2022/01/02 11:39:07;;;;;;;6.45;3.80;;;;;;;9.31;95.71;100669.53;7393270;19;20111;-66
2022/01/02 11:41:37;;;;;;;7.10;3.97;;;;;;;9.29;95.85;100654.72;7395087;19;20015;-65
2022/01/02 11:44:06;;;;;;;8.20;4.70;;;;;;;9.27;95.98;100646.00;7393746;19;20010;-65
2022/01/02 11:46:41;;;;;;;6.10;4.30;;;;;;;9.27;96.07;100653.03;7392305;19;20028;-66
2022/01/02 11:49:28;;;;;;;11.60;4.88;;;;;;;9.25;95.90;100636.47;7394397;19;20011;-66